sensor_id;sensor_type;location;lat;lon;timestamp;P1;durP1;ratioP1;P2;durP2;ratioP2
66856;SDS011;53766;50.280;19.160;2022-12-07T00:01:21;8.55;;;5.10;;
66856;SDS011;53766;50.280;19.160;2022-12-07T00:03:51;9.35;;;5.50;;
66856;SDS011;53766;50.280;19.160;2022-12-07T00:06:21;9.27;;;5.63;;
66856;SDS011;53766;50.280;19.160;2022-12-07T00:08:48;9.48;;;5.32;;
66856;SDS011;53766;50.280;19.160;2022-12-07T00:11:18;9.23;;;5.07;;
66856;SDS011;53766;50.280;19.160;2022-12-07T00:13:50;9.15;;;5.43;;
66856;SDS011;53766;50.280;19.160;2022-12-07T00:16:20;7.60;;;5.00;;
66856;SDS011;53766;50.280;19.160;2022-12-07T00:18:49;9.60;;;5.70;;
66856;SDS011;53766;50.280;19.160;2022-12-07T00:21:18;9.57;;;5.60;;
66856;SDS011;53766;50.280;19.160;2022-12-07T00:23:47;8.82;;;5.57;;
66856;SDS011;53766;50.280;19.160;2022-12-07T00:26:18;8.30;;;5.00;;
66856;SDS011;53766;50.280;19.160;2022-12-07T00:28:47;8.65;;;5.22;;
66856;SDS011;53766;50.280;19.160;2022-12-07T00:31:17;7.78;;;4.85;;
66856;SDS011;53766;50.280;19.160;2022-12-07T00:33:45;11.00;;;6.20;;
66856;SDS011;53766;50.280;19.160;2022-12-07T00:36:14;7.65;;;5.40;;
66856;SDS011;53766;50.280;19.160;2022-12-07T00:38:52;8.80;;;5.50;;
66856;SDS011;53766;50.280;19.160;2022-12-07T00:41:21;8.32;;;5.30;;
66856;SDS011;53766;50.280;19.160;2022-12-07T00:43:50;8.85;;;5.20;;
66856;SDS011;53766;50.280;19.160;2022-12-07T00:46:18;7.60;;;5.03;;
66856;SDS011;53766;50.280;19.160;2022-12-07T00:48:47;8.52;;;5.32;;
66856;SDS011;53766;50.280;19.160;2022-12-07T00:51:17;7.40;;;5.15;;
66856;SDS011;53766;50.280;19.160;2022-12-07T00:53:46;7.15;;;4.68;;
66856;SDS011;53766;50.280;19.160;2022-12-07T00:56:19;7.85;;;4.88;;
66856;SDS011;53766;50.280;19.160;2022-12-07T00:58:55;7.57;;;5.15;;
66856;SDS011;53766;50.280;19.160;2022-12-07T01:01:26;10.55;;;5.28;;
66856;SDS011;53766;50.280;19.160;2022-12-07T01:03:55;8.82;;;5.18;;
66856;SDS011;53766;50.280;19.160;2022-12-07T01:06:23;7.97;;;5.15;;
66856;SDS011;53766;50.280;19.160;2022-12-07T01:08:51;8.43;;;4.93;;
66856;SDS011;53766;50.280;19.160;2022-12-07T01:11:21;8.13;;;5.03;;
66856;SDS011;53766;50.280;19.160;2022-12-07T01:13:51;7.63;;;5.10;;
66856;SDS011;53766;50.280;19.160;2022-12-07T01:16:21;7.47;;;4.95;;
66856;SDS011;53766;50.280;19.160;2022-12-07T01:18:50;8.27;;;5.18;;
66856;SDS011;53766;50.280;19.160;2022-12-07T01:21:21;7.88;;;4.75;;
66856;SDS011;53766;50.280;19.160;2022-12-07T01:23:54;8.02;;;4.95;;
66856;SDS011;53766;50.280;19.160;2022-12-07T01:26:22;7.82;;;4.90;;
66856;SDS011;53766;50.280;19.160;2022-12-07T01:28:51;7.22;;;4.75;;
66856;SDS011;53766;50.280;19.160;2022-12-07T01:31:22;7.55;;;4.82;;
66856;SDS011;53766;50.280;19.160;2022-12-07T01:33:52;7.88;;;4.63;;
66856;SDS011;53766;50.280;19.160;2022-12-07T01:36:23;8.32;;;5.00;;
66856;SDS011;53766;50.280;19.160;2022-12-07T01:38:57;7.70;;;4.93;;
66856;SDS011;53766;50.280;19.160;2022-12-07T01:41:27;7.35;;;4.60;;
66856;SDS011;53766;50.280;19.160;2022-12-07T01:46:42;7.80;;;4.80;;
66856;SDS011;53766;50.280;19.160;2022-12-07T01:49:16;7.57;;;4.60;;
66856;SDS011;53766;50.280;19.160;2022-12-07T01:51:47;7.65;;;4.95;;
66856;SDS011;53766;50.280;19.160;2022-12-07T01:54:18;7.40;;;4.68;;
66856;SDS011;53766;50.280;19.160;2022-12-07T01:56:49;7.90;;;4.60;;
66856;SDS011;53766;50.280;19.160;2022-12-07T01:59:20;8.38;;;4.70;;
66856;SDS011;53766;50.280;19.160;2022-12-07T02:01:52;8.02;;;5.13;;
66856;SDS011;53766;50.280;19.160;2022-12-07T02:04:22;7.50;;;4.90;;
66856;SDS011;53766;50.280;19.160;2022-12-07T02:06:50;7.30;;;4.57;;
66856;SDS011;53766;50.280;19.160;2022-12-07T02:09:19;7.93;;;4.95;;
66856;SDS011;53766;50.280;19.160;2022-12-07T02:11:47;6.88;;;4.75;;
66856;SDS011;53766;50.280;19.160;2022-12-07T02:14:15;7.85;;;5.00;;
66856;SDS011;53766;50.280;19.160;2022-12-07T02:16:48;6.65;;;4.63;;
66856;SDS011;53766;50.280;19.160;2022-12-07T02:19:37;7.28;;;4.25;;
66856;SDS011;53766;50.280;19.160;2022-12-07T02:28:12;6.22;;;4.45;;
66856;SDS011;53766;50.280;19.160;2022-12-07T02:30:54;7.65;;;4.25;;
66856;SDS011;53766;50.280;19.160;2022-12-07T02:33:31;6.00;;;4.28;;
66856;SDS011;53766;50.280;19.160;2022-12-07T02:41:35;7.93;;;4.50;;
66856;SDS011;53766;50.280;19.160;2022-12-07T02:44:17;7.60;;;4.75;;
66856;SDS011;53766;50.280;19.160;2022-12-07T02:46:49;7.80;;;4.30;;
66856;SDS011;53766;50.280;19.160;2022-12-07T02:49:24;6.75;;;4.05;;
66856;SDS011;53766;50.280;19.160;2022-12-07T02:51:53;8.88;;;4.40;;
66856;SDS011;53766;50.280;19.160;2022-12-07T02:54:21;8.60;;;4.90;;
66856;SDS011;53766;50.280;19.160;2022-12-07T02:56:51;7.97;;;4.32;;
66856;SDS011;53766;50.280;19.160;2022-12-07T02:59:41;6.85;;;4.20;;
66856;SDS011;53766;50.280;19.160;2022-12-07T03:05:07;6.80;;;4.10;;
66856;SDS011;53766;50.280;19.160;2022-12-07T03:16:23;7.72;;;4.03;;
66856;SDS011;53766;50.280;19.160;2022-12-07T03:18:55;6.65;;;4.10;;
66856;SDS011;53766;50.280;19.160;2022-12-07T03:21:27;7.03;;;4.35;;
66856;SDS011;53766;50.280;19.160;2022-12-07T03:24:00;7.15;;;3.97;;
66856;SDS011;53766;50.280;19.160;2022-12-07T03:26:35;7.60;;;4.25;;
66856;SDS011;53766;50.280;19.160;2022-12-07T03:29:08;7.22;;;4.30;;
66856;SDS011;53766;50.280;19.160;2022-12-07T03:31:45;7.10;;;4.60;;
66856;SDS011;53766;50.280;19.160;2022-12-07T03:34:20;6.45;;;4.00;;
66856;SDS011;53766;50.280;19.160;2022-12-07T03:36:55;7.15;;;4.18;;
66856;SDS011;53766;50.280;19.160;2022-12-07T03:39:45;6.43;;;4.13;;
66856;SDS011;53766;50.280;19.160;2022-12-07T03:42:21;7.10;;;4.10;;
66856;SDS011;53766;50.280;19.160;2022-12-07T03:44:49;6.78;;;4.30;;
66856;SDS011;53766;50.280;19.160;2022-12-07T03:47:31;6.93;;;4.40;;
66856;SDS011;53766;50.280;19.160;2022-12-07T03:50:03;6.95;;;4.25;;
66856;SDS011;53766;50.280;19.160;2022-12-07T03:52:37;8.80;;;4.32;;
66856;SDS011;53766;50.280;19.160;2022-12-07T03:55:20;7.55;;;3.80;;
66856;SDS011;53766;50.280;19.160;2022-12-07T03:57:55;7.10;;;4.23;;
66856;SDS011;53766;50.280;19.160;2022-12-07T04:00:26;7.13;;;4.50;;
66856;SDS011;53766;50.280;19.160;2022-12-07T04:02:54;6.50;;;4.20;;
66856;SDS011;53766;50.280;19.160;2022-12-07T04:05:22;6.03;;;4.25;;
66856;SDS011;53766;50.280;19.160;2022-12-07T04:07:51;6.68;;;4.03;;
66856;SDS011;53766;50.280;19.160;2022-12-07T04:10:18;7.10;;;4.10;;
66856;SDS011;53766;50.280;19.160;2022-12-07T04:12:46;5.97;;;3.78;;
66856;SDS011;53766;50.280;19.160;2022-12-07T04:15:14;6.82;;;3.97;;
66856;SDS011;53766;50.280;19.160;2022-12-07T04:17:41;6.75;;;3.75;;
66856;SDS011;53766;50.280;19.160;2022-12-07T04:20:09;6.90;;;4.00;;
66856;SDS011;53766;50.280;19.160;2022-12-07T04:22:37;7.63;;;4.15;;
66856;SDS011;53766;50.280;19.160;2022-12-07T04:25:04;7.32;;;4.30;;
66856;SDS011;53766;50.280;19.160;2022-12-07T04:27:32;7.38;;;4.32;;
66856;SDS011;53766;50.280;19.160;2022-12-07T04:30:00;7.10;;;4.75;;
66856;SDS011;53766;50.280;19.160;2022-12-07T04:32:28;7.78;;;4.50;;
66856;SDS011;53766;50.280;19.160;2022-12-07T04:34:55;7.10;;;4.30;;
66856;SDS011;53766;50.280;19.160;2022-12-07T04:37:23;7.78;;;4.10;;
66856;SDS011;53766;50.280;19.160;2022-12-07T04:39:51;6.53;;;4.15;;
66856;SDS011;53766;50.280;19.160;2022-12-07T04:42:18;6.53;;;3.70;;
66856;SDS011;53766;50.280;19.160;2022-12-07T04:44:46;6.20;;;4.18;;
66856;SDS011;53766;50.280;19.160;2022-12-07T04:47:13;6.88;;;4.07;;
66856;SDS011;53766;50.280;19.160;2022-12-07T04:49:41;7.28;;;4.40;;
66856;SDS011;53766;50.280;19.160;2022-12-07T04:52:09;7.13;;;4.32;;
66856;SDS011;53766;50.280;19.160;2022-12-07T04:54:37;5.55;;;3.83;;
66856;SDS011;53766;50.280;19.160;2022-12-07T04:57:04;7.03;;;4.28;;
66856;SDS011;53766;50.280;19.160;2022-12-07T04:59:33;7.43;;;4.20;;
66856;SDS011;53766;50.280;19.160;2022-12-07T05:02:00;7.00;;;4.40;;
66856;SDS011;53766;50.280;19.160;2022-12-07T05:04:28;7.57;;;4.35;;
66856;SDS011;53766;50.280;19.160;2022-12-07T05:06:55;7.03;;;4.32;;
66856;SDS011;53766;50.280;19.160;2022-12-07T05:09:22;6.60;;;4.22;;
66856;SDS011;53766;50.280;19.160;2022-12-07T05:11:50;7.38;;;4.35;;
66856;SDS011;53766;50.280;19.160;2022-12-07T05:14:18;7.93;;;4.43;;
66856;SDS011;53766;50.280;19.160;2022-12-07T05:16:48;6.97;;;4.15;;
66856;SDS011;53766;50.280;19.160;2022-12-07T05:19:17;6.93;;;4.50;;
66856;SDS011;53766;50.280;19.160;2022-12-07T05:21:46;8.55;;;4.35;;
66856;SDS011;53766;50.280;19.160;2022-12-07T05:24:14;7.53;;;4.40;;
66856;SDS011;53766;50.280;19.160;2022-12-07T05:26:43;9.68;;;4.53;;
66856;SDS011;53766;50.280;19.160;2022-12-07T05:29:15;7.57;;;4.30;;
66856;SDS011;53766;50.280;19.160;2022-12-07T05:31:44;7.00;;;4.20;;
66856;SDS011;53766;50.280;19.160;2022-12-07T05:34:11;10.35;;;4.47;;
66856;SDS011;53766;50.280;19.160;2022-12-07T05:36:39;7.90;;;4.20;;
66856;SDS011;53766;50.280;19.160;2022-12-07T05:39:06;7.25;;;4.25;;
66856;SDS011;53766;50.280;19.160;2022-12-07T05:41:34;7.28;;;4.30;;
66856;SDS011;53766;50.280;19.160;2022-12-07T05:44:21;6.00;;;3.75;;
66856;SDS011;53766;50.280;19.160;2022-12-07T05:46:48;5.25;;;3.85;;
66856;SDS011;53766;50.280;19.160;2022-12-07T05:49:16;9.00;;;4.28;;
66856;SDS011;53766;50.280;19.160;2022-12-07T05:51:43;9.63;;;4.55;;
66856;SDS011;53766;50.280;19.160;2022-12-07T05:54:11;8.57;;;4.43;;
66856;SDS011;53766;50.280;19.160;2022-12-07T05:56:38;6.90;;;4.10;;
66856;SDS011;53766;50.280;19.160;2022-12-07T05:59:07;7.60;;;4.72;;
66856;SDS011;53766;50.280;19.160;2022-12-07T06:01:55;8.75;;;4.10;;
66856;SDS011;53766;50.280;19.160;2022-12-07T06:04:26;8.43;;;4.77;;
66856;SDS011;53766;50.280;19.160;2022-12-07T06:06:55;9.80;;;4.43;;
66856;SDS011;53766;50.280;19.160;2022-12-07T06:09:23;8.30;;;4.20;;
66856;SDS011;53766;50.280;19.160;2022-12-07T06:11:53;10.85;;;4.95;;
66856;SDS011;53766;50.280;19.160;2022-12-07T06:14:39;11.82;;;4.22;;
66856;SDS011;53766;50.280;19.160;2022-12-07T06:17:07;13.38;;;4.38;;
66856;SDS011;53766;50.280;19.160;2022-12-07T06:19:35;17.65;;;4.90;;
66856;SDS011;53766;50.280;19.160;2022-12-07T06:22:02;20.40;;;4.80;;
66856;SDS011;53766;50.280;19.160;2022-12-07T06:24:32;14.30;;;4.78;;
66856;SDS011;53766;50.280;19.160;2022-12-07T06:27:00;21.25;;;5.22;;
66856;SDS011;53766;50.280;19.160;2022-12-07T06:29:28;17.58;;;5.13;;
66856;SDS011;53766;50.280;19.160;2022-12-07T06:31:55;16.88;;;5.13;;
66856;SDS011;53766;50.280;19.160;2022-12-07T06:34:23;12.30;;;4.97;;
66856;SDS011;53766;50.280;19.160;2022-12-07T06:36:52;15.00;;;5.05;;
66856;SDS011;53766;50.280;19.160;2022-12-07T06:39:22;13.40;;;4.93;;
66856;SDS011;53766;50.280;19.160;2022-12-07T06:41:52;12.55;;;4.57;;
66856;SDS011;53766;50.280;19.160;2022-12-07T06:44:21;16.27;;;4.95;;
66856;SDS011;53766;50.280;19.160;2022-12-07T06:46:49;12.85;;;4.45;;
66856;SDS011;53766;50.280;19.160;2022-12-07T06:49:17;8.50;;;4.35;;
66856;SDS011;53766;50.280;19.160;2022-12-07T06:51:45;14.38;;;4.82;;
66856;SDS011;53766;50.280;19.160;2022-12-07T06:54:13;14.75;;;4.22;;
66856;SDS011;53766;50.280;19.160;2022-12-07T06:56:41;12.10;;;4.40;;
66856;SDS011;53766;50.280;19.160;2022-12-07T06:59:10;11.95;;;4.65;;
66856;SDS011;53766;50.280;19.160;2022-12-07T07:01:37;12.85;;;4.70;;
66856;SDS011;53766;50.280;19.160;2022-12-07T07:04:05;17.55;;;4.38;;
66856;SDS011;53766;50.280;19.160;2022-12-07T07:06:32;14.13;;;4.63;;
66856;SDS011;53766;50.280;19.160;2022-12-07T07:09:00;9.60;;;4.50;;
66856;SDS011;53766;50.280;19.160;2022-12-07T07:11:28;11.35;;;4.57;;
66856;SDS011;53766;50.280;19.160;2022-12-07T07:13:55;12.93;;;4.95;;
66856;SDS011;53766;50.280;19.160;2022-12-07T07:16:25;12.55;;;4.68;;
66856;SDS011;53766;50.280;19.160;2022-12-07T07:18:53;9.60;;;4.60;;
66856;SDS011;53766;50.280;19.160;2022-12-07T07:21:21;15.50;;;5.03;;
66856;SDS011;53766;50.280;19.160;2022-12-07T07:23:48;16.95;;;4.70;;
66856;SDS011;53766;50.280;19.160;2022-12-07T07:26:16;9.57;;;4.65;;
66856;SDS011;53766;50.280;19.160;2022-12-07T07:28:49;12.48;;;5.13;;
66856;SDS011;53766;50.280;19.160;2022-12-07T07:31:16;11.68;;;5.05;;
66856;SDS011;53766;50.280;19.160;2022-12-07T07:33:45;9.55;;;4.50;;
66856;SDS011;53766;50.280;19.160;2022-12-07T07:36:13;10.27;;;4.60;;
66856;SDS011;53766;50.280;19.160;2022-12-07T07:38:41;9.85;;;4.85;;
66856;SDS011;53766;50.280;19.160;2022-12-07T07:41:09;8.02;;;4.75;;
66856;SDS011;53766;50.280;19.160;2022-12-07T07:43:36;12.70;;;5.25;;
66856;SDS011;53766;50.280;19.160;2022-12-07T07:46:04;10.93;;;4.70;;
66856;SDS011;53766;50.280;19.160;2022-12-07T07:48:31;10.60;;;5.00;;
66856;SDS011;53766;50.280;19.160;2022-12-07T07:50:59;8.13;;;4.68;;
66856;SDS011;53766;50.280;19.160;2022-12-07T07:53:26;12.38;;;4.60;;
66856;SDS011;53766;50.280;19.160;2022-12-07T07:55:54;8.90;;;4.50;;
66856;SDS011;53766;50.280;19.160;2022-12-07T07:58:22;10.80;;;4.78;;
66856;SDS011;53766;50.280;19.160;2022-12-07T08:00:49;12.32;;;5.20;;
66856;SDS011;53766;50.280;19.160;2022-12-07T08:03:17;8.65;;;4.38;;
66856;SDS011;53766;50.280;19.160;2022-12-07T08:05:45;7.47;;;4.70;;
66856;SDS011;53766;50.280;19.160;2022-12-07T08:08:12;9.90;;;4.40;;
66856;SDS011;53766;50.280;19.160;2022-12-07T08:10:40;6.63;;;4.22;;
66856;SDS011;53766;50.280;19.160;2022-12-07T08:13:07;8.23;;;4.80;;
66856;SDS011;53766;50.280;19.160;2022-12-07T08:15:38;10.95;;;4.80;;
66856;SDS011;53766;50.280;19.160;2022-12-07T08:18:07;10.98;;;5.07;;
66856;SDS011;53766;50.280;19.160;2022-12-07T08:20:36;8.07;;;4.32;;
66856;SDS011;53766;50.280;19.160;2022-12-07T08:23:04;9.82;;;5.03;;
66856;SDS011;53766;50.280;19.160;2022-12-07T08:25:33;7.53;;;4.45;;
66856;SDS011;53766;50.280;19.160;2022-12-07T08:28:01;7.50;;;4.28;;
66856;SDS011;53766;50.280;19.160;2022-12-07T08:30:29;9.80;;;4.70;;
66856;SDS011;53766;50.280;19.160;2022-12-07T08:32:57;7.68;;;4.47;;
66856;SDS011;53766;50.280;19.160;2022-12-07T08:35:25;8.45;;;4.68;;
66856;SDS011;53766;50.280;19.160;2022-12-07T08:37:53;8.18;;;4.45;;
66856;SDS011;53766;50.280;19.160;2022-12-07T08:40:20;9.15;;;4.90;;
66856;SDS011;53766;50.280;19.160;2022-12-07T08:42:48;7.28;;;4.32;;
66856;SDS011;53766;50.280;19.160;2022-12-07T08:45:17;8.55;;;4.65;;
66856;SDS011;53766;50.280;19.160;2022-12-07T08:50:20;8.32;;;4.28;;
66856;SDS011;53766;50.280;19.160;2022-12-07T08:52:49;7.40;;;4.22;;
66856;SDS011;53766;50.280;19.160;2022-12-07T08:55:19;10.35;;;4.45;;
66856;SDS011;53766;50.280;19.160;2022-12-07T08:57:47;12.55;;;4.78;;
66856;SDS011;53766;50.280;19.160;2022-12-07T09:00:16;11.52;;;5.30;;
66856;SDS011;53766;50.280;19.160;2022-12-07T09:02:44;8.20;;;4.43;;
66856;SDS011;53766;50.280;19.160;2022-12-07T09:05:13;8.02;;;5.00;;
66856;SDS011;53766;50.280;19.160;2022-12-07T09:07:44;7.68;;;4.78;;
66856;SDS011;53766;50.280;19.160;2022-12-07T09:10:16;8.30;;;4.78;;
66856;SDS011;53766;50.280;19.160;2022-12-07T09:12:44;6.28;;;4.40;;
66856;SDS011;53766;50.280;19.160;2022-12-07T09:15:11;8.43;;;4.68;;
66856;SDS011;53766;50.280;19.160;2022-12-07T09:17:39;8.63;;;4.72;;
66856;SDS011;53766;50.280;19.160;2022-12-07T09:20:07;7.13;;;4.13;;
66856;SDS011;53766;50.280;19.160;2022-12-07T09:22:34;8.55;;;4.45;;
66856;SDS011;53766;50.280;19.160;2022-12-07T09:25:02;8.27;;;4.22;;
66856;SDS011;53766;50.280;19.160;2022-12-07T09:27:30;8.35;;;4.65;;
66856;SDS011;53766;50.280;19.160;2022-12-07T09:29:58;7.88;;;4.70;;
66856;SDS011;53766;50.280;19.160;2022-12-07T09:32:25;7.95;;;4.32;;
66856;SDS011;53766;50.280;19.160;2022-12-07T09:34:53;6.78;;;4.45;;
66856;SDS011;53766;50.280;19.160;2022-12-07T09:37:21;9.95;;;4.63;;
66856;SDS011;53766;50.280;19.160;2022-12-07T09:39:49;9.68;;;4.55;;
66856;SDS011;53766;50.280;19.160;2022-12-07T09:45:04;8.38;;;5.10;;
66856;SDS011;53766;50.280;19.160;2022-12-07T09:47:34;6.72;;;4.55;;
66856;SDS011;53766;50.280;19.160;2022-12-07T09:50:06;6.60;;;4.18;;
66856;SDS011;53766;50.280;19.160;2022-12-07T09:52:39;9.35;;;4.95;;
66856;SDS011;53766;50.280;19.160;2022-12-07T09:55:15;8.07;;;4.63;;
66856;SDS011;53766;50.280;19.160;2022-12-07T09:57:48;9.00;;;4.82;;
66856;SDS011;53766;50.280;19.160;2022-12-07T10:00:16;7.97;;;4.65;;
66856;SDS011;53766;50.280;19.160;2022-12-07T10:02:54;9.27;;;4.47;;
66856;SDS011;53766;50.280;19.160;2022-12-07T10:08:12;7.25;;;4.35;;
66856;SDS011;53766;50.280;19.160;2022-12-07T10:10:43;7.57;;;4.65;;
66856;SDS011;53766;50.280;19.160;2022-12-07T10:13:12;7.88;;;4.38;;
66856;SDS011;53766;50.280;19.160;2022-12-07T10:15:50;7.53;;;4.80;;
66856;SDS011;53766;50.280;19.160;2022-12-07T10:18:38;7.22;;;4.63;;
66856;SDS011;53766;50.280;19.160;2022-12-07T10:23:39;6.72;;;4.30;;
66856;SDS011;53766;50.280;19.160;2022-12-07T10:26:25;7.97;;;4.35;;
66856;SDS011;53766;50.280;19.160;2022-12-07T10:31:43;9.10;;;4.38;;
66856;SDS011;53766;50.280;19.160;2022-12-07T10:34:20;7.03;;;4.32;;
66856;SDS011;53766;50.280;19.160;2022-12-07T10:36:53;8.48;;;4.65;;
66856;SDS011;53766;50.280;19.160;2022-12-07T10:39:40;8.98;;;4.47;;
66856;SDS011;53766;50.280;19.160;2022-12-07T10:42:17;9.65;;;4.75;;
66856;SDS011;53766;50.280;19.160;2022-12-07T10:44:49;11.90;;;5.00;;
66856;SDS011;53766;50.280;19.160;2022-12-07T10:47:36;10.05;;;5.07;;
66856;SDS011;53766;50.280;19.160;2022-12-07T10:50:17;9.60;;;4.68;;
66856;SDS011;53766;50.280;19.160;2022-12-07T11:06:37;15.48;;;6.35;;
66856;SDS011;53766;50.280;19.160;2022-12-07T11:18:27;18.73;;;7.32;;
66856;SDS011;53766;50.280;19.160;2022-12-07T11:21:06;13.07;;;6.25;;
66856;SDS011;53766;50.280;19.160;2022-12-07T11:26:34;14.10;;;5.95;;
66856;SDS011;53766;50.280;19.160;2022-12-07T11:29:27;15.05;;;6.20;;
66856;SDS011;53766;50.280;19.160;2022-12-07T11:32:12;13.90;;;5.70;;
66856;SDS011;53766;50.280;19.160;2022-12-07T11:37:31;13.05;;;5.82;;
66856;SDS011;53766;50.280;19.160;2022-12-07T11:40:13;13.25;;;5.88;;
66856;SDS011;53766;50.280;19.160;2022-12-07T11:42:49;14.40;;;7.47;;
66856;SDS011;53766;50.280;19.160;2022-12-07T11:45:26;20.15;;;9.02;;
66856;SDS011;53766;50.280;19.160;2022-12-07T11:50:36;19.00;;;8.30;;
66856;SDS011;53766;50.280;19.160;2022-12-07T11:53:26;15.80;;;7.43;;
66856;SDS011;53766;50.280;19.160;2022-12-07T11:56:08;16.58;;;8.00;;
66856;SDS011;53766;50.280;19.160;2022-12-07T12:06:52;16.65;;;7.60;;
66856;SDS011;53766;50.280;19.160;2022-12-07T12:09:23;12.23;;;6.78;;
66856;SDS011;53766;50.280;19.160;2022-12-07T12:21:09;14.30;;;7.20;;
66856;SDS011;53766;50.280;19.160;2022-12-07T12:23:46;17.48;;;7.50;;
66856;SDS011;53766;50.280;19.160;2022-12-07T12:26:21;18.67;;;7.15;;
66856;SDS011;53766;50.280;19.160;2022-12-07T12:31:34;15.25;;;6.68;;
66856;SDS011;53766;50.280;19.160;2022-12-07T12:36:59;12.18;;;6.50;;
66856;SDS011;53766;50.280;19.160;2022-12-07T12:39:26;12.93;;;6.60;;
66856;SDS011;53766;50.280;19.160;2022-12-07T12:41:55;15.32;;;7.00;;
66856;SDS011;53766;50.280;19.160;2022-12-07T12:52:45;14.30;;;6.82;;
66856;SDS011;53766;50.280;19.160;2022-12-07T12:55:01;12.20;;;6.63;;
66856;SDS011;53766;50.280;19.160;2022-12-07T12:57:39;13.50;;;5.57;;
66856;SDS011;53766;50.280;19.160;2022-12-07T13:00:22;10.15;;;5.80;;
66856;SDS011;53766;50.280;19.160;2022-12-07T13:02:52;10.80;;;5.90;;
66856;SDS011;53766;50.280;19.160;2022-12-07T13:05:25;12.40;;;6.18;;
66856;SDS011;53766;50.280;19.160;2022-12-07T13:10:41;10.73;;;5.88;;
66856;SDS011;53766;50.280;19.160;2022-12-07T13:23:35;11.82;;;5.45;;
66856;SDS011;53766;50.280;19.160;2022-12-07T13:26:12;9.75;;;5.53;;
66856;SDS011;53766;50.280;19.160;2022-12-07T13:31:49;10.25;;;5.20;;
66856;SDS011;53766;50.280;19.160;2022-12-07T13:34:36;10.23;;;5.47;;
66856;SDS011;53766;50.280;19.160;2022-12-07T13:37:12;9.02;;;4.97;;
66856;SDS011;53766;50.280;19.160;2022-12-07T13:39:46;8.98;;;5.20;;
66856;SDS011;53766;50.280;19.160;2022-12-07T13:42:33;10.95;;;5.45;;
66856;SDS011;53766;50.280;19.160;2022-12-07T13:45:21;10.27;;;5.15;;
66856;SDS011;53766;50.280;19.160;2022-12-07T13:48:54;9.32;;;5.28;;
66856;SDS011;53766;50.280;19.160;2022-12-07T13:51:14;8.93;;;5.22;;
66856;SDS011;53766;50.280;19.160;2022-12-07T13:53:52;10.00;;;5.47;;
66856;SDS011;53766;50.280;19.160;2022-12-07T13:56:24;10.18;;;5.53;;
66856;SDS011;53766;50.280;19.160;2022-12-07T13:58:56;8.63;;;4.82;;
66856;SDS011;53766;50.280;19.160;2022-12-07T14:01:24;10.73;;;4.82;;
66856;SDS011;53766;50.280;19.160;2022-12-07T14:03:52;7.75;;;4.90;;
66856;SDS011;53766;50.280;19.160;2022-12-07T14:06:24;7.28;;;4.43;;
66856;SDS011;53766;50.280;19.160;2022-12-07T14:09:16;10.13;;;5.32;;
66856;SDS011;53766;50.280;19.160;2022-12-07T14:11:46;9.05;;;4.90;;
66856;SDS011;53766;50.280;19.160;2022-12-07T14:14:37;9.48;;;5.07;;
66856;SDS011;53766;50.280;19.160;2022-12-07T14:19:48;9.65;;;4.95;;
66856;SDS011;53766;50.280;19.160;2022-12-07T14:25:33;10.18;;;4.85;;
66856;SDS011;53766;50.280;19.160;2022-12-07T14:27:57;8.73;;;4.60;;
66856;SDS011;53766;50.280;19.160;2022-12-07T14:30:30;8.48;;;4.20;;
66856;SDS011;53766;50.280;19.160;2022-12-07T14:33:01;7.90;;;4.60;;
66856;SDS011;53766;50.280;19.160;2022-12-07T14:35:30;5.93;;;4.00;;
66856;SDS011;53766;50.280;19.160;2022-12-07T14:37:59;7.95;;;4.13;;
66856;SDS011;53766;50.280;19.160;2022-12-07T14:40:28;8.00;;;4.47;;
66856;SDS011;53766;50.280;19.160;2022-12-07T14:45:32;7.80;;;4.20;;
66856;SDS011;53766;50.280;19.160;2022-12-07T14:47:59;8.73;;;4.40;;
66856;SDS011;53766;50.280;19.160;2022-12-07T14:50:51;8.10;;;3.72;;
66856;SDS011;53766;50.280;19.160;2022-12-07T14:53:41;6.03;;;3.65;;
66856;SDS011;53766;50.280;19.160;2022-12-07T14:56:19;8.40;;;4.28;;
66856;SDS011;53766;50.280;19.160;2022-12-07T14:58:47;7.15;;;3.97;;
66856;SDS011;53766;50.280;19.160;2022-12-07T15:01:16;6.38;;;4.18;;
66856;SDS011;53766;50.280;19.160;2022-12-07T15:03:44;7.53;;;4.25;;
66856;SDS011;53766;50.280;19.160;2022-12-07T15:06:16;7.45;;;4.28;;
66856;SDS011;53766;50.280;19.160;2022-12-07T15:08:44;7.07;;;4.15;;
66856;SDS011;53766;50.280;19.160;2022-12-07T15:11:13;6.72;;;4.03;;
66856;SDS011;53766;50.280;19.160;2022-12-07T15:13:41;7.10;;;3.95;;
66856;SDS011;53766;50.280;19.160;2022-12-07T15:16:27;6.88;;;4.22;;
66856;SDS011;53766;50.280;19.160;2022-12-07T15:19:16;7.57;;;3.97;;
66856;SDS011;53766;50.280;19.160;2022-12-07T15:21:55;6.65;;;3.90;;
66856;SDS011;53766;50.280;19.160;2022-12-07T15:24:24;7.65;;;4.03;;
66856;SDS011;53766;50.280;19.160;2022-12-07T15:26:51;6.78;;;4.00;;
66856;SDS011;53766;50.280;19.160;2022-12-07T15:29:19;8.23;;;3.65;;
66856;SDS011;53766;50.280;19.160;2022-12-07T15:31:52;6.93;;;3.80;;
66856;SDS011;53766;50.280;19.160;2022-12-07T15:34:24;6.80;;;3.80;;
66856;SDS011;53766;50.280;19.160;2022-12-07T15:36:52;6.65;;;3.70;;
66856;SDS011;53766;50.280;19.160;2022-12-07T15:39:20;6.82;;;3.95;;
66856;SDS011;53766;50.280;19.160;2022-12-07T15:41:48;6.10;;;3.80;;
66856;SDS011;53766;50.280;19.160;2022-12-07T15:44:17;6.15;;;3.95;;
66856;SDS011;53766;50.280;19.160;2022-12-07T15:47:03;6.80;;;3.80;;
66856;SDS011;53766;50.280;19.160;2022-12-07T15:49:32;6.43;;;3.75;;
66856;SDS011;53766;50.280;19.160;2022-12-07T15:51:59;6.65;;;3.78;;
66856;SDS011;53766;50.280;19.160;2022-12-07T15:54:27;5.72;;;3.50;;
66856;SDS011;53766;50.280;19.160;2022-12-07T15:56:56;7.50;;;4.22;;
66856;SDS011;53766;50.280;19.160;2022-12-07T15:59:25;8.52;;;4.18;;
66856;SDS011;53766;50.280;19.160;2022-12-07T16:01:53;7.68;;;3.97;;
66856;SDS011;53766;50.280;19.160;2022-12-07T16:04:21;7.25;;;3.80;;
66856;SDS011;53766;50.280;19.160;2022-12-07T16:06:49;6.68;;;3.80;;
66856;SDS011;53766;50.280;19.160;2022-12-07T16:09:18;7.68;;;3.70;;
66856;SDS011;53766;50.280;19.160;2022-12-07T16:11:45;7.75;;;3.67;;
66856;SDS011;53766;50.280;19.160;2022-12-07T16:14:13;6.65;;;3.97;;
66856;SDS011;53766;50.280;19.160;2022-12-07T16:16:40;6.20;;;3.60;;
66856;SDS011;53766;50.280;19.160;2022-12-07T16:19:09;7.40;;;3.80;;
66856;SDS011;53766;50.280;19.160;2022-12-07T16:21:37;6.88;;;4.07;;
66856;SDS011;53766;50.280;19.160;2022-12-07T16:24:06;8.20;;;3.83;;
66856;SDS011;53766;50.280;19.160;2022-12-07T16:26:33;5.95;;;3.45;;
66856;SDS011;53766;50.280;19.160;2022-12-07T16:29:01;6.25;;;3.55;;
66856;SDS011;53766;50.280;19.160;2022-12-07T16:31:29;8.15;;;4.25;;
66856;SDS011;53766;50.280;19.160;2022-12-07T16:33:57;6.88;;;3.90;;
66856;SDS011;53766;50.280;19.160;2022-12-07T16:36:25;9.27;;;4.15;;
66856;SDS011;53766;50.280;19.160;2022-12-07T16:39:15;6.10;;;3.70;;
66856;SDS011;53766;50.280;19.160;2022-12-07T16:41:42;7.20;;;3.97;;
66856;SDS011;53766;50.280;19.160;2022-12-07T16:44:10;6.78;;;3.92;;
66856;SDS011;53766;50.280;19.160;2022-12-07T16:46:39;7.97;;;3.80;;
66856;SDS011;53766;50.280;19.160;2022-12-07T16:49:14;6.05;;;3.42;;
66856;SDS011;53766;50.280;19.160;2022-12-07T16:51:42;6.93;;;4.22;;
66856;SDS011;53766;50.280;19.160;2022-12-07T16:54:11;7.85;;;3.80;;
66856;SDS011;53766;50.280;19.160;2022-12-07T16:56:39;11.82;;;4.28;;
66856;SDS011;53766;50.280;19.160;2022-12-07T16:59:07;8.10;;;4.03;;
66856;SDS011;53766;50.280;19.160;2022-12-07T17:01:35;6.93;;;3.90;;